Time;durP1;ratioP1;P1;durP2;ratioP2;P2;SDS_P1;SDS_P2;PMS_P1;PMS_P2;Temp;Humidity;BMP_temperature;BMP_pressure;BME280_temperature;BME280_humidity;BME280_pressure;Samples;Min_cycle;Max_cycle;Signal;HPM_P1;HPM_P2
2024/03/22 00:01:46;;;;;;;80.70;53.30;;;;;;;9.22;100.00;99177.52;109476;1251;59772;-72
2024/03/22 00:04:13;;;;;;;83.70;55.90;;;;;;;9.26;100.00;99178.05;109570;1251;59845;-73
2024/03/22 00:06:41;;;;;;;77.90;52.10;;;;;;;9.30;100.00;99176.42;109532;1250;66566;-73
2024/03/22 00:09:07;;;;;;;80.40;53.60;;;;;;;9.33;100.00;99174.63;109549;1251;60143;-74
2024/03/22 00:11:34;;;;;;;80.60;55.10;;;;;;;9.36;100.00;99178.87;109568;1251;59934;-73
2024/03/22 00:14:01;;;;;;;79.40;50.40;;;;;;;9.39;100.00;99178.36;109491;1251;59725;-74
2024/03/22 00:16:28;;;;;;;77.10;50.40;;;;;;;9.40;100.00;99176.33;109500;1250;59858;-74
2024/03/22 00:18:54;;;;;;;72.30;50.90;;;;;;;9.42;100.00;99172.31;109554;1251;65655;-73
2024/03/22 00:21:22;;;;;;;78.50;51.60;;;;;;;9.43;100.00;99169.95;109564;1251;59796;-74
2024/03/22 00:23:48;;;;;;;70.10;48.20;;;;;;;9.44;100.00;99166.86;109522;1251;62825;-74
2024/03/22 00:26:14;;;;;;;65.20;46.90;;;;;;;9.46;100.00;99166.77;109516;1251;59849;-74
2024/03/22 00:28:41;;;;;;;71.30;47.10;;;;;;;9.47;100.00;99166.70;109594;1251;59828;-74
2024/03/22 00:31:08;;;;;;;65.90;45.40;;;;;;;9.49;100.00;99163.09;109537;1250;59916;-73
2024/03/22 00:33:35;;;;;;;64.50;43.10;;;;;;;9.50;100.00;99162.83;109520;1252;59852;-73
2024/03/22 00:36:01;;;;;;;60.40;42.00;;;;;;;9.50;100.00;99161.20;109467;1251;62552;-74
2024/03/22 00:38:28;;;;;;;60.50;43.50;;;;;;;9.52;100.00;99161.47;109447;1252;59741;-72
2024/03/22 00:40:54;;;;;;;55.10;39.80;;;;;;;9.53;100.00;99159.81;109488;1252;60148;-74
2024/03/22 00:43:21;;;;;;;58.10;40.80;;;;;;;9.54;100.00;99160.80;109457;1252;59908;-73
2024/03/22 00:45:47;;;;;;;54.90;38.70;;;;;;;9.55;100.00;99162.17;109480;1252;59969;-74
2024/03/22 00:48:14;;;;;;;58.10;40.20;;;;;;;9.56;100.00;99162.77;109117;1252;59797;-74
2024/03/22 00:50:40;;;;;;;53.30;40.00;;;;;;;9.58;100.00;99160.34;109413;1252;59751;-72
2024/03/22 00:53:07;;;;;;;55.60;39.20;;;;;;;9.60;100.00;99159.71;109499;1252;60052;-74
2024/03/22 00:55:34;;;;;;;53.90;39.40;;;;;;;9.60;100.00;99157.41;109440;1252;65326;-73
2024/03/22 00:58:01;;;;;;;54.30;36.30;;;;;;;9.60;100.00;99156.50;109461;1252;60168;-74
2024/03/22 01:00:27;;;;;;;55.60;39.00;;;;;;;9.60;100.00;99158.11;109482;1252;65328;-73
2024/03/22 01:02:53;;;;;;;54.50;37.90;;;;;;;9.59;100.00;99156.38;109427;1252;60093;-72
2024/03/22 01:05:20;;;;;;;50.10;37.80;;;;;;;9.58;100.00;99163.55;109493;1252;59903;-73
2024/03/22 01:07:46;;;;;;;50.70;38.00;;;;;;;9.57;100.00;99164.71;109471;1252;60515;-72
2024/03/22 01:10:13;;;;;;;52.80;38.00;;;;;;;9.55;100.00;99165.67;109471;1252;59709;-72
2024/03/22 01:12:39;;;;;;;54.30;38.60;;;;;;;9.54;100.00;99165.97;109426;1252;59937;-73
2024/03/22 01:15:07;;;;;;;52.40;39.10;;;;;;;9.52;100.00;99164.97;109431;1252;59773;-74
2024/03/22 01:17:34;;;;;;;53.70;41.40;;;;;;;9.51;100.00;99165.57;109446;1252;59657;-73
2024/03/22 01:20:00;;;;;;;51.90;39.50;;;;;;;9.50;100.00;99168.45;109420;1252;67080;-72
2024/03/22 01:22:27;;;;;;;50.20;37.30;;;;;;;9.51;100.00;99167.92;109464;1252;60183;-73
2024/03/22 01:24:53;;;;;;;51.80;38.00;;;;;;;9.51;100.00;99166.09;109418;1252;59858;-73
2024/03/22 01:27:20;;;;;;;49.90;37.00;;;;;;;9.52;100.00;99162.15;109416;1252;59971;-74
2024/03/22 01:29:47;;;;;;;51.70;38.40;;;;;;;9.53;100.00;99159.09;109475;1252;59630;-72
2024/03/22 01:32:13;;;;;;;53.80;40.20;;;;;;;9.53;100.00;99159.25;109468;1252;67060;-73
2024/03/22 01:34:40;;;;;;;56.30;40.00;;;;;;;9.53;100.00;99158.55;109326;1252;59869;-73
2024/03/22 01:37:06;;;;;;;52.00;39.60;;;;;;;9.53;100.00;99157.85;109435;1252;59931;-73
2024/03/22 01:39:32;;;;;;;53.30;39.10;;;;;;;9.53;100.00;99155.54;109408;1252;59698;-73
2024/03/22 01:41:59;;;;;;;52.40;37.90;;;;;;;9.53;100.00;99153.24;109438;1252;59873;-74
2024/03/22 01:44:29;;;;;;;56.10;40.20;;;;;;;9.53;100.00;99150.94;109432;1252;59819;-73
2024/03/22 01:46:56;;;;;;;52.10;38.70;;;;;;;9.52;100.00;99154.52;109516;1252;59882;-72
2024/03/22 01:49:25;;;;;;;53.00;38.20;;;;;;;9.52;100.00;99153.84;109471;1253;62784;-74
2024/03/22 01:51:52;;;;;;;54.60;39.10;;;;;;;9.52;100.00;99152.75;109474;1252;59817;-72
2024/03/22 01:54:20;;;;;;;47.10;36.40;;;;;;;9.52;100.00;99155.23;109456;1252;59865;-73
2024/03/22 01:56:47;;;;;;;53.80;39.70;;;;;;;9.52;100.00;99154.73;109436;1252;66835;-72
2024/03/22 01:59:14;;;;;;;51.80;40.30;;;;;;;9.52;100.00;99157.58;109509;1251;60508;-72
2024/03/22 02:01:41;;;;;;;55.90;39.80;;;;;;;9.52;100.00;99157.41;109453;1252;62837;-74
2024/03/22 02:04:07;;;;;;;58.20;41.50;;;;;;;9.52;100.00;99160.23;109470;1252;60064;-73
2024/03/22 02:06:34;;;;;;;57.20;42.90;;;;;;;9.51;100.00;99165.77;109484;1252;59762;-73
2024/03/22 02:09:01;;;;;;;59.00;42.30;;;;;;;9.51;100.00;99166.15;109474;1253;66543;-73
2024/03/22 02:11:28;;;;;;;56.00;40.50;;;;;;;9.50;100.00;99162.09;109481;1252;60093;-74
2024/03/22 02:13:54;;;;;;;57.30;41.30;;;;;;;9.50;100.00;99165.27;109458;1253;62888;-73
2024/03/22 02:16:21;;;;;;;50.90;39.00;;;;;;;9.51;100.00;99168.46;109447;1252;59754;-73
2024/03/22 02:18:47;;;;;;;51.70;41.40;;;;;;;9.51;100.00;99169.85;109456;1252;59808;-73
2024/03/22 02:21:14;;;;;;;58.40;42.70;;;;;;;9.52;100.00;99170.12;109476;1252;59783;-74
2024/03/22 02:23:41;;;;;;;55.70;40.40;;;;;;;9.53;100.00;99169.90;109246;1252;60859;-73
2024/03/22 02:26:08;;;;;;;53.00;39.40;;;;;;;9.54;100.00;99164.73;109492;1252;64167;-73
2024/03/22 02:28:35;;;;;;;54.00;41.80;;;;;;;9.54;100.00;99165.39;109447;1252;59785;-72
2024/03/22 02:31:03;;;;;;;57.00;42.90;;;;;;;9.55;100.00;99166.75;109475;1253;59846;-74
2024/03/22 02:33:30;;;;;;;51.40;42.10;;;;;;;9.56;100.00;99164.42;109510;1252;66733;-73
2024/03/22 02:35:56;;;;;;;57.20;45.20;;;;;;;9.56;100.00;99160.34;109488;1252;59854;-73
2024/03/22 02:38:23;;;;;;;57.30;47.00;;;;;;;9.57;100.00;99161.71;109256;1252;59925;-72
2024/03/22 02:40:51;;;;;;;55.20;46.50;;;;;;;9.57;100.00;99160.77;109450;1252;59767;-72
2024/03/22 02:43:18;;;;;;;55.80;43.60;;;;;;;9.58;100.00;99160.90;109439;1252;59915;-73
2024/03/22 02:45:46;;;;;;;45.80;39.30;;;;;;;9.59;100.00;99159.98;109490;1252;66625;-73
2024/03/22 02:48:12;;;;;;;47.80;37.40;;;;;;;9.60;100.00;99162.35;109455;1252;59755;-72
2024/03/22 02:50:39;;;;;;;48.30;35.80;;;;;;;9.61;100.00;99163.03;109431;1252;63782;-73
2024/03/22 02:53:05;;;;;;;43.40;34.80;;;;;;;9.63;100.00;99163.45;109491;1251;60087;-73
2024/03/22 02:55:41;;;;;;;41.20;33.30;;;;;;;9.65;100.00;99163.82;109454;1252;59812;-73
2024/03/22 02:58:08;;;;;;;40.20;33.10;;;;;;;9.70;100.00;99161.09;109441;1253;66666;-72
2024/03/22 03:00:38;;;;;;;38.80;31.10;;;;;;;9.72;100.00;99160.23;109464;1252;60110;-73
2024/03/22 03:03:05;;;;;;;;;;;;;;;9.74;100.00;99160.83;109487;1252;62505;-73
2024/03/22 03:05:31;;;;;;;36.90;29.40;;;;;;;9.75;100.00;99157.45;109494;1252;59745;-73
2024/03/22 03:07:57;;;;;;;38.20;30.70;;;;;;;9.75;100.00;99153.16;109482;1252;59772;-72
2024/03/22 03:10:24;;;;;;;37.80;29.50;;;;;;;9.75;100.00;99153.55;109465;1252;59828;-72
2024/03/22 03:12:50;;;;;;;34.80;28.10;;;;;;;9.75;100.00;99153.16;109485;1253;60082;-72
2024/03/22 03:15:17;;;;;;;38.00;30.30;;;;;;;9.75;100.00;99153.48;109480;1252;59944;-72
2024/03/22 03:17:43;;;;;;;35.20;29.20;;;;;;;9.74;100.00;99154.25;109513;1252;59784;-73
2024/03/22 03:20:13;;;;;;;34.40;29.20;;;;;;;9.72;100.00;99153.18;109480;1252;59859;-72
2024/03/22 03:22:40;;;;;;;38.00;29.60;;;;;;;9.67;100.00;99156.45;109270;1252;65643;-72
2024/03/22 03:25:07;;;;;;;37.60;29.60;;;;;;;9.63;100.00;99153.52;109473;1252;59756;-73
2024/03/22 03:27:34;;;;;;;35.90;29.10;;;;;;;9.61;100.00;99151.88;109491;1252;63835;-73
2024/03/22 03:30:01;;;;;;;34.90;29.00;;;;;;;9.61;100.00;99150.09;109438;1252;59858;-73
2024/03/22 03:32:28;;;;;;;34.40;28.60;;;;;;;9.59;100.00;99146.64;109520;1252;62102;-73
2024/03/22 03:34:54;;;;;;;32.00;28.10;;;;;;;9.56;100.00;99141.86;109513;1252;66864;-73
2024/03/22 03:37:21;;;;;;;35.50;27.80;;;;;;;9.53;100.00;99143.82;109241;1255;59954;-73
2024/03/22 03:39:47;;;;;;;34.40;27.70;;;;;;;9.48;100.00;99144.85;109471;1252;59767;-73
2024/03/22 03:42:13;;;;;;;33.80;28.80;;;;;;;9.42;100.00;99146.41;109435;1252;59800;-73
2024/03/22 03:44:41;;;;;;;39.00;30.60;;;;;;;9.39;100.00;99147.70;109492;1252;59819;-73
2024/03/22 03:47:08;;;;;;;37.70;31.20;;;;;;;9.35;100.00;99148.10;109470;1253;65660;-73
2024/03/22 03:49:35;;;;;;;37.40;31.60;;;;;;;9.34;100.00;99147.42;109497;1252;60286;-73
2024/03/22 03:52:01;;;;;;;35.20;30.40;;;;;;;9.36;100.00;99145.59;109454;1252;64073;-73
2024/03/22 03:54:28;;;;;;;40.10;33.80;;;;;;;9.37;100.00;99146.23;109490;1252;59781;-73
2024/03/22 03:56:54;;;;;;;38.80;30.60;;;;;;;9.38;100.00;99143.11;109500;1253;59854;-72
2024/03/22 03:59:21;;;;;;;36.90;30.10;;;;;;;9.40;100.00;99144.05;109394;1252;59872;-73
2024/03/22 04:01:47;;;;;;;31.20;27.90;;;;;;;9.42;100.00;99148.54;109516;1252;60758;-73
2024/03/22 04:04:13;;;;;;;34.60;29.10;;;;;;;9.44;100.00;99145.58;109520;1253;59800;-73
2024/03/22 04:06:40;;;;;;;30.90;25.80;;;;;;;9.47;100.00;99148.84;109213;1252;60195;-72
2024/03/22 04:09:06;;;;;;;32.90;27.30;;;;;;;9.48;100.00;99145.39;109509;1253;59963;-73
2024/03/22 04:11:33;;;;;;;31.10;27.20;;;;;;;9.49;100.00;99143.89;109476;1253;59824;-72
2024/03/22 04:13:59;;;;;;;29.60;26.40;;;;;;;9.50;100.00;99142.94;109481;1253;59884;-72
2024/03/22 04:16:25;;;;;;;29.30;25.10;;;;;;;9.51;100.00;99143.61;109489;1252;59900;-73
2024/03/22 04:18:53;;;;;;;29.10;26.10;;;;;;;9.51;100.00;99147.52;109488;1252;59750;-73
2024/03/22 04:21:19;;;;;;;32.40;28.20;;;;;;;9.50;100.00;99146.84;109494;1252;59992;-72
2024/03/22 04:23:45;;;;;;;33.70;30.00;;;;;;;9.50;100.00;99146.48;109498;1252;59750;-72
2024/03/22 04:26:12;;;;;;;34.00;28.90;;;;;;;9.51;100.00;99143.99;109347;1253;59852;-73
2024/03/22 04:28:39;;;;;;;33.80;30.10;;;;;;;9.51;100.00;99143.95;109468;1252;59809;-73
2024/03/22 04:31:10;;;;;;;34.20;30.40;;;;;;;9.51;100.00;99142.00;109234;1252;59821;-72
2024/03/22 04:33:37;;;;;;;34.00;29.10;;;;;;;9.50;100.00;99137.79;109479;1252;59778;-74
2024/03/22 04:36:04;;;;;;;33.40;29.90;;;;;;;9.49;100.00;99139.44;109212;1255;66645;-72
2024/03/22 04:38:30;;;;;;;35.90;30.20;;;;;;;9.49;100.00;99133.78;109250;1252;60000;-75
2024/03/22 04:40:57;;;;;;;33.80;29.80;;;;;;;9.49;100.00;99135.77;109401;1253;60182;-74
2024/03/22 04:43:24;;;;;;;30.20;27.10;;;;;;;9.48;100.00;99136.52;109371;1254;59803;-74
2024/03/22 04:45:51;;;;;;;35.10;29.50;;;;;;;9.47;100.00;99135.70;109543;1252;59705;-73
2024/03/22 04:48:20;;;;;;;35.70;31.80;;;;;;;9.46;100.00;99136.27;109497;1252;66611;-73
2024/03/22 04:50:49;;;;;;;36.40;32.50;;;;;;;9.46;100.00;99138.23;109541;1252;61480;-74
2024/03/22 04:53:17;;;;;;;36.40;31.00;;;;;;;9.45;100.00;99137.89;109511;1252;64167;-73
2024/03/22 04:55:46;;;;;;;37.50;33.30;;;;;;;9.45;100.00;99140.20;109515;1252;59778;-74
2024/03/22 04:58:18;;;;;;;35.20;31.40;;;;;;;9.47;100.00;99141.36;109571;1253;59758;-74
2024/03/22 05:00:45;;;;;;;36.40;29.60;;;;;;;9.48;100.00;99145.58;109548;1252;66506;-73
2024/03/22 05:03:12;;;;;;;33.50;30.00;;;;;;;9.49;100.00;99148.34;109524;1252;60119;-73
2024/03/22 05:05:39;;;;;;;37.30;30.50;;;;;;;9.51;100.00;99147.18;109516;1252;62780;-73
2024/03/22 05:08:06;;;;;;;29.20;26.00;;;;;;;9.52;100.00;99149.92;109471;1252;59787;-74
2024/03/22 05:10:33;;;;;;;31.60;26.70;;;;;;;9.53;100.00;99153.40;109529;1252;59805;-73
2024/03/22 05:13:00;;;;;;;29.90;25.50;;;;;;;9.55;100.00;99152.26;109305;1252;65386;-74
2024/03/22 05:15:26;;;;;;;28.20;25.20;;;;;;;9.56;100.00;99150.41;109541;1251;59754;-72
2024/03/22 05:17:53;;;;;;;27.60;24.60;;;;;;;9.58;100.00;99149.00;109546;1253;60708;-73
2024/03/22 05:20:20;;;;;;;28.90;25.80;;;;;;;9.60;100.00;99156.14;109513;1253;59822;-73
2024/03/22 05:22:47;;;;;;;28.10;25.10;;;;;;;9.61;100.00;99154.71;109529;1252;59686;-74
2024/03/22 05:25:15;;;;;;;31.40;26.70;;;;;;;9.62;100.00;99146.07;109558;1253;66629;-73
2024/03/22 05:27:42;;;;;;;32.70;26.80;;;;;;;9.64;100.00;99143.87;109542;1252;60128;-73
2024/03/22 05:30:09;;;;;;;31.20;27.20;;;;;;;9.65;100.00;99146.48;109488;1253;64424;-73
2024/03/22 05:32:36;;;;;;;32.50;27.50;;;;;;;9.65;100.00;99151.06;109513;1252;59753;-73
2024/03/22 05:35:02;;;;;;;30.70;25.90;;;;;;;9.66;100.00;99155.82;109574;1252;59962;-73
2024/03/22 05:37:29;;;;;;;28.40;24.60;;;;;;;9.68;100.00;99159.21;109536;1253;66882;-73
2024/03/22 05:39:55;;;;;;;27.20;24.10;;;;;;;9.72;100.00;99160.25;109551;1253;59775;-73
2024/03/22 05:42:21;;;;;;;29.40;24.80;;;;;;;9.75;100.00;99158.27;109532;1252;59857;-74
2024/03/22 05:44:48;;;;;;;27.40;23.30;;;;;;;9.79;100.00;99164.45;109521;1252;59769;-75
2024/03/22 05:47:14;;;;;;;26.50;23.20;;;;;;;9.83;100.00;99160.27;109520;1252;59843;-74
2024/03/22 05:49:41;;;;;;;27.30;23.60;;;;;;;9.88;100.00;99159.80;109528;1253;59728;-73
2024/03/22 05:52:07;;;;;;;26.70;23.90;;;;;;;9.92;100.00;99164.89;109558;1253;60064;-74
2024/03/22 05:54:33;;;;;;;28.10;24.50;;;;;;;9.94;100.00;99162.80;109487;1253;59924;-73
2024/03/22 05:57:00;;;;;;;27.30;23.50;;;;;;;9.95;100.00;99166.27;109499;1252;59788;-75
2024/03/22 05:59:27;;;;;;;29.10;25.60;;;;;;;9.97;100.00;99163.83;109501;1252;59837;-72
2024/03/22 06:01:54;;;;;;;30.20;26.80;;;;;;;10.04;100.00;99162.19;109521;1253;60140;-72
2024/03/22 06:04:20;;;;;;;29.40;26.30;;;;;;;10.11;100.00;99155.52;109494;1253;60042;-72
2024/03/22 06:06:46;;;;;;;30.40;26.30;;;;;;;10.19;100.00;99148.98;109500;1252;59867;-74
2024/03/22 06:09:13;;;;;;;27.60;24.70;;;;;;;10.27;100.00;99149.39;109467;1255;59726;-73
2024/03/22 06:11:43;;;;;;;31.20;27.60;;;;;;;10.31;100.00;99145.94;109511;1252;60012;-73
2024/03/22 06:14:10;;;;;;;31.60;24.90;;;;;;;10.37;100.00;99142.77;109490;1253;66962;-72
2024/03/22 06:16:36;;;;;;;31.40;25.00;;;;;;;10.39;100.00;99143.19;109516;1255;59875;-73
2024/03/22 06:19:03;;;;;;;29.60;25.50;;;;;;;10.38;100.00;99143.77;109505;1253;60149;-73
2024/03/22 06:21:29;;;;;;;29.40;25.10;;;;;;;10.35;100.00;99140.22;109518;1253;60071;-73
2024/03/22 06:23:55;;;;;;;24.20;21.40;;;;;;;10.31;100.00;99143.80;109482;1252;59862;-73
2024/03/22 06:26:22;;;;;;;24.40;21.70;;;;;;;10.25;100.00;99147.20;109505;1253;59859;-74
2024/03/22 06:28:48;;;;;;;25.40;22.50;;;;;;;10.18;100.00;99147.84;109506;1252;59845;-72
2024/03/22 06:31:14;;;;;;;25.30;21.90;;;;;;;10.12;100.00;99149.76;109477;1252;59954;-73
2024/03/22 06:33:41;;;;;;;22.40;20.00;;;;;;;10.07;100.00;99152.04;109549;1252;59738;-73
2024/03/22 06:36:08;;;;;;;22.00;19.00;;;;;;;10.04;100.00;99153.49;109535;1252;59949;-73
2024/03/22 06:38:34;;;;;;;23.90;21.40;;;;;;;9.99;100.00;99157.86;109528;1252;60092;-72
2024/03/22 06:41:01;;;;;;;23.00;20.60;;;;;;;9.97;100.00;99156.59;109442;1253;59771;-74
2024/03/22 06:43:27;;;;;;;23.40;20.60;;;;;;;9.97;100.00;99148.75;109556;1252;60066;-73
2024/03/22 06:45:53;;;;;;;24.40;20.30;;;;;;;9.98;100.00;99152.81;109500;1253;59820;-74
2024/03/22 06:48:20;;;;;;;21.90;19.60;;;;;;;9.95;100.00;99156.52;109466;1253;60556;-72
2024/03/22 06:50:46;;;;;;;23.00;18.90;;;;;;;9.94;100.00;99162.46;109517;1253;59877;-73
2024/03/22 06:53:13;;;;;;;19.10;16.90;;;;;;;9.92;100.00;99164.15;109464;1252;59815;-73
2024/03/22 06:55:39;;;;;;;19.60;17.40;;;;;;;9.94;100.00;99162.30;109532;1252;59887;-72
2024/03/22 06:58:05;;;;;;;20.50;17.50;;;;;;;9.97;100.00;99160.11;109575;1251;60122;-73
2024/03/22 07:00:34;;;;;;;18.00;16.00;;;;;;;10.07;100.00;99156.48;109486;1252;59847;-74
2024/03/22 07:03:03;;;;;;;20.10;15.50;;;;;;;10.16;100.00;99154.52;109215;1252;65338;-72
2024/03/22 07:05:30;;;;;;;18.70;16.60;;;;;;;10.19;100.00;99151.52;109518;1252;59814;-73
2024/03/22 07:07:57;;;;;;;16.70;14.00;;;;;;;10.18;100.00;99157.26;109516;1252;63798;-73
2024/03/22 07:10:27;;;;;;;15.70;14.00;;;;;;;10.15;100.00;99152.64;109420;1253;59744;-72
2024/03/22 07:12:56;;;;;;;14.90;13.30;;;;;;;10.18;100.00;99147.33;109546;1252;59905;-74
2024/03/22 07:15:23;;;;;;;12.70;10.60;;;;;;;10.17;100.00;99147.00;109502;1253;65415;-74
2024/03/22 07:17:51;;;;;;;14.40;11.30;;;;;;;10.15;100.00;99151.02;109518;1252;60023;-73
2024/03/22 07:20:18;;;;;;;13.10;10.10;;;;;;;10.14;100.00;99151.64;109501;1252;64053;-73
2024/03/22 07:22:44;;;;;;;13.00;10.20;;;;;;;10.13;100.00;99149.20;109485;1252;59721;-74
2024/03/22 07:25:11;;;;;;;13.60;10.50;;;;;;;10.13;100.00;99150.80;109521;1252;59883;-74
2024/03/22 07:27:38;;;;;;;13.20;10.40;;;;;;;10.14;100.00;99155.50;109527;1253;67125;-73
2024/03/22 07:30:06;;;;;;;15.50;11.10;;;;;;;10.15;100.00;99158.88;109524;1253;59773;-73
2024/03/22 07:32:32;;;;;;;13.90;11.10;;;;;;;10.12;100.00;99159.54;109517;1252;64250;-74
2024/03/22 07:34:59;;;;;;;12.60;11.20;;;;;;;10.15;100.00;99159.58;109435;1252;59838;-73
2024/03/22 07:37:25;;;;;;;16.00;11.50;;;;;;;10.17;100.00;99150.89;109517;1253;59839;-74
2024/03/22 07:39:51;;;;;;;14.80;11.90;;;;;;;10.20;100.00;99151.78;109539;1252;59792;-77
2024/03/22 07:42:18;;;;;;;15.80;11.90;;;;;;;10.26;100.00;99146.63;109558;1252;60036;-74
2024/03/22 07:44:45;;;;;;;14.90;10.90;;;;;;;10.34;100.00;99143.30;109532;1252;59896;-74
2024/03/22 07:47:11;;;;;;;20.20;13.60;;;;;;;10.48;100.00;99137.77;109211;1253;59862;-73
2024/03/22 07:49:37;;;;;;;15.30;12.40;;;;;;;10.57;100.00;99134.55;109508;1253;59823;-74
2024/03/22 07:52:04;;;;;;;19.00;13.40;;;;;;;10.63;100.00;99136.09;109331;1253;59856;-75
2024/03/22 07:54:31;;;;;;;15.80;13.30;;;;;;;10.71;100.00;99133.80;109513;1253;60248;-74
2024/03/22 07:56:57;;;;;;;19.20;13.30;;;;;;;10.78;100.00;99132.83;109517;1252;64059;-73
2024/03/22 07:59:24;;;;;;;16.00;12.40;;;;;;;10.84;100.00;99127.98;109534;1252;59790;-73
2024/03/22 08:01:51;;;;;;;14.60;12.40;;;;;;;10.95;100.00;99122.42;109515;1253;59769;-75
2024/03/22 08:04:20;;;;;;;15.40;12.40;;;;;;;11.05;100.00;99122.48;109513;1253;59828;-76
2024/03/22 08:06:46;;;;;;;13.50;12.10;;;;;;;11.10;100.00;99127.85;109489;1252;60725;-74
2024/03/22 08:09:13;;;;;;;17.70;12.80;;;;;;;11.08;100.00;99124.40;109210;1253;59862;-73
2024/03/22 08:11:39;;;;;;;15.20;12.20;;;;;;;11.03;100.00;99121.91;109472;1252;59770;-74
2024/03/22 08:14:07;;;;;;;12.00;10.60;;;;;;;11.03;100.00;99119.11;109536;1253;59903;-73
2024/03/22 08:16:34;;;;;;;14.50;11.60;;;;;;;11.04;100.00;99115.80;109568;1252;59830;-74
2024/03/22 08:19:00;;;;;;;13.30;11.80;;;;;;;11.02;100.00;99114.56;109498;1252;59736;-74
2024/03/22 08:21:26;;;;;;;13.90;11.30;;;;;;;11.02;100.00;99113.45;109497;1253;59845;-74
2024/03/22 08:23:53;;;;;;;12.00;10.60;;;;;;;11.05;100.00;99111.62;109521;1252;59794;-76
2024/03/22 08:26:19;;;;;;;12.90;11.60;;;;;;;11.12;100.00;99116.70;109285;1252;59778;-75
2024/03/22 08:28:46;;;;;;;13.00;11.50;;;;;;;11.16;100.00;99123.70;109485;1253;59876;-74
2024/03/22 08:31:14;;;;;;;13.80;11.60;;;;;;;11.14;100.00;99129.02;109511;1253;60536;-73
2024/03/22 08:33:40;;;;;;;13.50;11.30;;;;;;;11.10;100.00;99127.88;109514;1253;64107;-74
2024/03/22 08:36:07;;;;;;;15.80;12.20;;;;;;;11.02;100.00;99121.96;109470;1252;59769;-75
2024/03/22 08:38:33;;;;;;;13.00;11.30;;;;;;;10.97;100.00;99123.55;109561;1254;59804;-75
2024/03/22 08:41:00;;;;;;;14.60;12.00;;;;;;;10.96;100.00;99126.79;109538;1251;59891;-75
2024/03/22 08:43:27;;;;;;;14.30;11.50;;;;;;;10.98;100.00;99126.30;109495;1251;59812;-74
2024/03/22 08:45:54;;;;;;;13.60;11.20;;;;;;;11.04;100.00;99128.44;109558;1251;64511;-73
2024/03/22 08:48:20;;;;;;;13.20;11.10;;;;;;;11.05;100.00;99131.40;109487;1251;60831;-74
2024/03/22 08:50:46;;;;;;;13.70;10.70;;;;;;;11.02;100.00;99129.84;109577;1251;59834;-75
2024/03/22 08:53:13;;;;;;;13.90;10.90;;;;;;;10.98;100.00;99134.84;109373;1251;59831;-74
2024/03/22 08:55:46;;;;;;;12.50;11.20;;;;;;;10.97;100.00;99127.63;109547;1251;60010;-74
2024/03/22 08:58:17;;;;;;;13.10;11.60;;;;;;;10.96;100.00;99130.05;109490;1251;62783;-74
2024/03/22 09:00:44;;;;;;;12.50;11.00;;;;;;;10.96;100.00;99130.39;109486;1251;59874;-74
2024/03/22 09:03:10;;;;;;;13.60;12.20;;;;;;;10.96;100.00;99127.35;109532;1251;60197;-74
2024/03/22 09:05:37;;;;;;;14.70;11.70;;;;;;;10.94;100.00;99127.31;109562;1251;66926;-73
2024/03/22 09:08:04;;;;;;;13.90;11.20;;;;;;;10.95;100.00;99129.05;109516;1252;59851;-74
2024/03/22 09:10:30;;;;;;;14.50;12.40;;;;;;;10.93;100.00;99128.79;109517;1251;64060;-74
2024/03/22 09:12:56;;;;;;;15.10;13.10;;;;;;;10.91;100.00;99132.34;109524;1251;59687;-73
2024/03/22 09:15:24;;;;;;;14.00;12.50;;;;;;;10.90;100.00;99132.89;109572;1251;60066;-73
2024/03/22 09:17:52;;;;;;;13.40;11.80;;;;;;;10.88;100.00;99134.84;109495;1251;66849;-74
2024/03/22 09:20:19;;;;;;;15.40;13.80;;;;;;;10.84;100.00;99134.93;109504;1251;70083;-74
2024/03/22 09:22:46;;;;;;;15.90;13.60;;;;;;;10.83;100.00;99137.27;109284;1251;59837;-74
2024/03/22 09:25:12;;;;;;;13.70;12.10;;;;;;;10.83;100.00;99134.59;109507;1251;59767;-76
2024/03/22 09:27:38;;;;;;;16.30;12.70;;;;;;;10.83;100.00;99134.96;109516;1251;59739;-74
2024/03/22 09:30:05;;;;;;;15.20;13.60;;;;;;;10.83;100.00;99138.22;109555;1251;59882;-74
2024/03/22 09:32:32;;;;;;;15.60;13.60;;;;;;;10.80;100.00;99137.12;109089;1251;61108;-74
2024/03/22 09:34:58;;;;;;;15.30;13.70;;;;;;;10.75;100.00;99136.77;109537;1252;59851;-74
2024/03/22 09:37:24;;;;;;;15.40;13.60;;;;;;;10.69;100.00;99132.52;109522;1251;60040;-74
2024/03/22 09:39:51;;;;;;;13.80;12.40;;;;;;;10.69;100.00;99132.52;109514;1251;59712;-74
2024/03/22 09:42:18;;;;;;;16.60;13.40;;;;;;;10.68;100.00;99130.44;109551;1251;59979;-74
2024/03/22 09:44:48;;;;;;;16.20;14.60;;;;;;;10.68;100.00;99127.95;109513;1251;59843;-74
2024/03/22 09:47:15;;;;;;;;;;;;;;;10.74;100.00;99127.39;109503;1251;64074;-74
2024/03/22 09:49:46;;;;;;;16.40;14.70;;;;;;;10.83;100.00;99122.49;109483;1251;59681;-74
2024/03/22 09:52:14;;;;;;;14.90;13.40;;;;;;;10.90;100.00;99121.33;109529;1251;59776;-74
2024/03/22 09:54:44;;;;;;;18.80;14.80;;;;;;;10.94;100.00;99117.86;109529;1251;66537;-74
2024/03/22 09:57:16;;;;;;;15.50;13.80;;;;;;;11.00;100.00;99116.77;109263;1251;59947;-74
2024/03/22 09:59:45;;;;;;;16.80;14.40;;;;;;;11.09;100.00;99113.85;109518;1251;65212;-74
2024/03/22 10:02:13;;;;;;;14.80;13.30;;;;;;;11.20;100.00;99113.09;109388;1251;179847;-74
2024/03/22 10:04:40;;;;;;;14.20;12.80;;;;;;;11.33;100.00;99115.29;109557;1251;59792;-75
2024/03/22 10:07:10;;;;;;;15.60;14.00;;;;;;;11.41;100.00;99114.19;109494;1251;66673;-75
2024/03/22 10:09:37;;;;;;;14.60;13.10;;;;;;;11.51;100.00;99109.46;109502;1251;59734;-73
2024/03/22 10:12:04;;;;;;;14.30;12.80;;;;;;;11.58;100.00;99107.69;109528;1251;63834;-74
2024/03/22 10:14:32;;;;;;;15.50;13.50;;;;;;;11.62;100.00;99105.25;109253;1251;60009;-74
2024/03/22 10:16:58;;;;;;;15.80;14.00;;;;;;;11.61;100.00;99103.20;109533;1251;59796;-76
2024/03/22 10:19:25;;;;;;;16.10;14.00;;;;;;;11.56;100.00;99098.35;109559;1251;65465;-74
2024/03/22 10:22:01;;;;;;;17.70;13.60;;;;;;;11.50;100.00;99099.74;109248;1251;59879;-74
2024/03/22 10:24:28;;;;;;;16.10;14.40;;;;;;;11.44;100.00;99099.00;109496;1251;72646;-74
2024/03/22 10:26:55;;;;;;;17.40;14.00;;;;;;;11.45;100.00;99096.66;109565;1251;59805;-73
2024/03/22 10:29:22;;;;;;;16.80;14.80;;;;;;;11.44;100.00;99093.88;109478;1251;59672;-74
2024/03/22 10:31:53;;;;;;;15.60;14.00;;;;;;;11.45;100.00;99095.05;109498;1251;67383;-74
2024/03/22 10:34:24;;;;;;;17.60;15.70;;;;;;;11.48;100.00;99097.17;109519;1251;59891;-74
2024/03/22 10:36:51;;;;;;;18.30;16.10;;;;;;;11.51;100.00;99097.71;109503;1251;64160;-74
2024/03/22 10:39:21;;;;;;;17.90;15.80;;;;;;;11.56;100.00;99095.56;109506;1251;59736;-75
2024/03/22 10:41:48;;;;;;;17.50;15.70;;;;;;;11.62;100.00;99094.20;109502;1251;59680;-74
2024/03/22 10:44:17;;;;;;;16.70;15.10;;;;;;;11.70;100.00;99085.48;109553;1250;65295;-75
2024/03/22 10:46:48;;;;;;;17.40;15.60;;;;;;;11.83;100.00;99078.90;109513;1251;68899;-74
2024/03/22 10:49:17;;;;;;;18.00;16.10;;;;;;;12.01;100.00;99073.53;109497;1251;62798;-73
2024/03/22 10:51:48;;;;;;;16.20;14.60;;;;;;;12.33;100.00;99070.55;109521;1256;60050;-74
2024/03/22 10:54:19;;;;;;;26.70;23.70;;;;;;;12.62;100.00;99067.54;109495;1251;59814;-74
2024/03/22 10:56:47;;;;;;;20.60;18.10;;;;;;;12.80;100.00;99064.72;109292;1251;66973;-74
2024/03/22 10:59:19;;;;;;;22.40;19.80;;;;;;;13.02;100.00;99063.64;109532;1251;60168;-74
2024/03/22 11:01:46;;;;;;;18.70;16.70;;;;;;;13.20;100.00;99055.96;109487;1251;63860;-74
2024/03/22 11:04:16;;;;;;;17.70;15.90;;;;;;;13.36;99.96;99052.64;109481;1251;59931;-75
2024/03/22 11:06:48;;;;;;;18.70;16.50;;;;;;;13.32;97.17;99052.73;109477;1251;59719;-73